sensor_id;sensor_type;location;lat;lon;timestamp;temperature;humidity
20325;DHT22;10320;49.482;11.256;2023-05-21T06:38:42;29.90;90.80
20325;DHT22;10320;49.482;11.256;2023-05-21T06:41:08;19.10;99.90
20325;DHT22;10320;49.482;11.256;2023-05-21T06:43:33;19.00;99.90
20325;DHT22;10320;49.482;11.256;2023-05-21T06:45:59;19.10;99.90
20325;DHT22;10320;49.482;11.256;2023-05-21T06:48:25;19.10;99.90
20325;DHT22;10320;49.482;11.256;2023-05-21T06:50:51;19.00;99.90
20325;DHT22;10320;49.482;11.256;2023-05-21T06:53:17;19.10;99.90
20325;DHT22;10320;49.482;11.256;2023-05-21T06:55:43;19.20;99.90
20325;DHT22;10320;49.482;11.256;2023-05-21T06:58:09;19.20;99.90
20325;DHT22;10320;49.482;11.256;2023-05-21T07:00:35;19.40;99.90
20325;DHT22;10320;49.482;11.256;2023-05-21T07:03:01;19.50;99.90
20325;DHT22;10320;49.482;11.256;2023-05-21T07:05:27;19.50;99.90
20325;DHT22;10320;49.482;11.256;2023-05-21T07:07:52;19.50;99.90
20325;DHT22;10320;49.482;11.256;2023-05-21T07:10:19;19.60;99.90
20325;DHT22;10320;49.482;11.256;2023-05-21T07:12:44;19.60;99.90
20325;DHT22;10320;49.482;11.256;2023-05-21T07:15:10;19.70;99.90
20325;DHT22;10320;49.482;11.256;2023-05-21T07:17:36;19.60;99.90
20325;DHT22;10320;49.482;11.256;2023-05-21T07:20:02;19.70;99.90
20325;DHT22;10320;49.482;11.256;2023-05-21T07:22:30;19.60;99.90
20325;DHT22;10320;49.482;11.256;2023-05-21T07:24:56;19.70;99.90
20325;DHT22;10320;49.482;11.256;2023-05-21T07:27:22;19.80;99.90
20325;DHT22;10320;49.482;11.256;2023-05-21T07:29:47;20.00;99.90
20325;DHT22;10320;49.482;11.256;2023-05-21T07:32:13;20.10;99.90
20325;DHT22;10320;49.482;11.256;2023-05-21T07:34:38;20.20;99.90
20325;DHT22;10320;49.482;11.256;2023-05-21T07:37:04;20.30;99.90
20325;DHT22;10320;49.482;11.256;2023-05-21T07:39:30;20.20;99.90
20325;DHT22;10320;49.482;11.256;2023-05-21T07:41:56;20.30;99.90
20325;DHT22;10320;49.482;11.256;2023-05-21T07:44:21;20.50;99.90
20325;DHT22;10320;49.482;11.256;2023-05-21T07:46:48;20.60;99.90
20325;DHT22;10320;49.482;11.256;2023-05-21T07:49:14;20.60;99.90
20325;DHT22;10320;49.482;11.256;2023-05-21T07:51:42;20.70;99.90
20325;DHT22;10320;49.482;11.256;2023-05-21T07:54:08;20.80;99.90
20325;DHT22;10320;49.482;11.256;2023-05-21T07:56:34;21.00;99.90
20325;DHT22;10320;49.482;11.256;2023-05-21T07:59:00;21.10;99.90
20325;DHT22;10320;49.482;11.256;2023-05-21T08:01:26;21.20;99.90
20325;DHT22;10320;49.482;11.256;2023-05-21T08:03:54;21.40;99.90
20325;DHT22;10320;49.482;11.256;2023-05-21T08:06:19;21.50;99.90
20325;DHT22;10320;49.482;11.256;2023-05-21T08:08:46;21.30;99.90
20325;DHT22;10320;49.482;11.256;2023-05-21T08:11:12;21.20;99.90
20325;DHT22;10320;49.482;11.256;2023-05-21T08:13:38;21.30;99.90
20325;DHT22;10320;49.482;11.256;2023-05-21T08:16:04;21.50;99.90
20325;DHT22;10320;49.482;11.256;2023-05-21T08:18:30;21.80;99.90
20325;DHT22;10320;49.482;11.256;2023-05-21T08:20:56;22.10;99.90
20325;DHT22;10320;49.482;11.256;2023-05-21T08:23:22;22.30;99.90
20325;DHT22;10320;49.482;11.256;2023-05-21T08:25:47;22.20;99.90
20325;DHT22;10320;49.482;11.256;2023-05-21T08:28:13;22.20;99.90
20325;DHT22;10320;49.482;11.256;2023-05-21T08:30:39;22.50;99.90
20325;DHT22;10320;49.482;11.256;2023-05-21T08:33:05;22.60;99.90
20325;DHT22;10320;49.482;11.256;2023-05-21T08:35:31;22.70;99.90
20325;DHT22;10320;49.482;11.256;2023-05-21T08:37:56;22.90;99.90
20325;DHT22;10320;49.482;11.256;2023-05-21T08:40:23;23.00;99.90
20325;DHT22;10320;49.482;11.256;2023-05-21T08:42:49;23.10;99.90
20325;DHT22;10320;49.482;11.256;2023-05-21T08:45:19;23.40;99.90
20325;DHT22;10320;49.482;11.256;2023-05-21T08:47:45;23.40;99.90
20325;DHT22;10320;49.482;11.256;2023-05-21T08:50:13;23.50;99.90
20325;DHT22;10320;49.482;11.256;2023-05-21T08:52:40;23.40;99.90
20325;DHT22;10320;49.482;11.256;2023-05-21T08:55:07;23.40;99.90
20325;DHT22;10320;49.482;11.256;2023-05-21T08:57:33;23.40;99.90
20325;DHT22;10320;49.482;11.256;2023-05-21T08:59:59;23.20;99.90
20325;DHT22;10320;49.482;11.256;2023-05-21T09:02:26;23.00;99.90
20325;DHT22;10320;49.482;11.256;2023-05-21T09:04:55;22.80;99.90
20325;DHT22;10320;49.482;11.256;2023-05-21T09:07:23;22.80;99.90
20325;DHT22;10320;49.482;11.256;2023-05-21T09:10:03;22.70;99.90
20325;DHT22;10320;49.482;11.256;2023-05-21T09:12:31;22.60;99.90
20325;DHT22;10320;49.482;11.256;2023-05-21T09:14:58;22.60;99.90
20325;DHT22;10320;49.482;11.256;2023-05-21T09:17:24;22.50;99.90
20325;DHT22;10320;49.482;11.256;2023-05-21T09:20:10;22.40;99.90
20325;DHT22;10320;49.482;11.256;2023-05-21T09:22:40;22.60;99.90
20325;DHT22;10320;49.482;11.256;2023-05-21T09:25:07;22.60;99.90
20325;DHT22;10320;49.482;11.256;2023-05-21T09:27:33;22.80;99.90
20325;DHT22;10320;49.482;11.256;2023-05-21T09:30:00;22.60;99.90
20325;DHT22;10320;49.482;11.256;2023-05-21T09:32:26;22.60;99.90
20325;DHT22;10320;49.482;11.256;2023-05-21T09:34:51;22.60;99.90
20325;DHT22;10320;49.482;11.256;2023-05-21T09:37:17;22.70;99.90
20325;DHT22;10320;49.482;11.256;2023-05-21T09:39:46;22.70;99.90
20325;DHT22;10320;49.482;11.256;2023-05-21T09:42:12;22.90;99.90
20325;DHT22;10320;49.482;11.256;2023-05-21T09:44:38;23.10;99.90
20325;DHT22;10320;49.482;11.256;2023-05-21T09:47:04;23.20;99.90
20325;DHT22;10320;49.482;11.256;2023-05-21T09:49:30;23.20;99.90
20325;DHT22;10320;49.482;11.256;2023-05-21T09:51:56;23.20;99.90
20325;DHT22;10320;49.482;11.256;2023-05-21T09:54:23;23.20;99.90
20325;DHT22;10320;49.482;11.256;2023-05-21T09:56:50;23.40;99.90
20325;DHT22;10320;49.482;11.256;2023-05-21T09:59:17;23.60;99.90
20325;DHT22;10320;49.482;11.256;2023-05-21T10:01:43;23.70;99.90
20325;DHT22;10320;49.482;11.256;2023-05-21T10:04:10;23.80;99.90
20325;DHT22;10320;49.482;11.256;2023-05-21T10:06:40;23.70;99.90
20325;DHT22;10320;49.482;11.256;2023-05-21T10:09:09;23.80;99.90
20325;DHT22;10320;49.482;11.256;2023-05-21T10:11:35;24.00;99.90
20325;DHT22;10320;49.482;11.256;2023-05-21T10:14:13;24.20;99.90
20325;DHT22;10320;49.482;11.256;2023-05-21T10:16:41;24.60;99.90
20325;DHT22;10320;49.482;11.256;2023-05-21T10:19:08;24.80;99.90
20325;DHT22;10320;49.482;11.256;2023-05-21T10:21:35;25.00;99.90
20325;DHT22;10320;49.482;11.256;2023-05-21T10:24:02;25.20;99.90
20325;DHT22;10320;49.482;11.256;2023-05-21T10:26:29;25.20;99.90
20325;DHT22;10320;49.482;11.256;2023-05-21T10:28:55;25.30;99.90
20325;DHT22;10320;49.482;11.256;2023-05-21T10:31:22;25.20;99.90
20325;DHT22;10320;49.482;11.256;2023-05-21T10:33:51;25.30;99.90
20325;DHT22;10320;49.482;11.256;2023-05-21T10:36:17;25.40;99.90
20325;DHT22;10320;49.482;11.256;2023-05-21T10:38:44;25.50;99.90
20325;DHT22;10320;49.482;11.256;2023-05-21T10:41:12;25.80;99.90
20325;DHT22;10320;49.482;11.256;2023-05-21T10:44:04;26.10;99.90
20325;DHT22;10320;49.482;11.256;2023-05-21T10:55:11;26.50;99.90
20325;DHT22;10320;49.482;11.256;2023-05-21T10:58:01;26.50;99.90
20325;DHT22;10320;49.482;11.256;2023-05-21T11:00:34;26.70;99.90
20325;DHT22;10320;49.482;11.256;2023-05-21T11:03:02;26.70;99.90
20325;DHT22;10320;49.482;11.256;2023-05-21T11:05:50;26.70;99.90
20325;DHT22;10320;49.482;11.256;2023-05-21T11:10:54;26.20;99.90
20325;DHT22;10320;49.482;11.256;2023-05-21T11:13:23;26.20;99.90
20325;DHT22;10320;49.482;11.256;2023-05-21T11:21:04;26.70;99.90
20325;DHT22;10320;49.482;11.256;2023-05-21T11:26:31;27.10;99.90
20325;DHT22;10320;49.482;11.256;2023-05-21T11:29:15;27.10;99.90
20325;DHT22;10320;49.482;11.256;2023-05-21T11:31:48;27.20;99.90
20325;DHT22;10320;49.482;11.256;2023-05-21T11:34:23;27.40;99.90
20325;DHT22;10320;49.482;11.256;2023-05-21T11:39:42;27.60;99.90
20325;DHT22;10320;49.482;11.256;2023-05-21T11:42:08;27.50;99.90
20325;DHT22;10320;49.482;11.256;2023-05-21T11:44:47;27.60;99.90
20325;DHT22;10320;49.482;11.256;2023-05-21T11:47:15;27.90;99.90
20325;DHT22;10320;49.482;11.256;2023-05-21T11:49:41;28.10;99.90
20325;DHT22;10320;49.482;11.256;2023-05-21T11:52:08;28.40;99.60
20325;DHT22;10320;49.482;11.256;2023-05-21T11:54:53;28.50;98.40
20325;DHT22;10320;49.482;11.256;2023-05-21T11:57:25;28.50;98.20
20325;DHT22;10320;49.482;11.256;2023-05-21T11:59:54;28.60;99.20
20325;DHT22;10320;49.482;11.256;2023-05-21T12:02:29;28.60;97.70
20325;DHT22;10320;49.482;11.256;2023-05-21T12:04:55;28.50;94.10
20325;DHT22;10320;49.482;11.256;2023-05-21T12:07:26;28.40;95.50
20325;DHT22;10320;49.482;11.256;2023-05-21T12:09:55;28.50;96.80
20325;DHT22;10320;49.482;11.256;2023-05-21T12:12:23;28.80;98.60
20325;DHT22;10320;49.482;11.256;2023-05-21T12:14:51;29.00;95.20
20325;DHT22;10320;49.482;11.256;2023-05-21T12:17:21;28.90;94.70
20325;DHT22;10320;49.482;11.256;2023-05-21T12:19:52;28.80;94.30
20325;DHT22;10320;49.482;11.256;2023-05-21T12:22:18;28.60;96.50
20325;DHT22;10320;49.482;11.256;2023-05-21T12:24:44;28.60;93.10
20325;DHT22;10320;49.482;11.256;2023-05-21T12:27:11;28.60;93.30
20325;DHT22;10320;49.482;11.256;2023-05-21T12:29:39;28.30;93.50
20325;DHT22;10320;49.482;11.256;2023-05-21T12:32:08;28.30;94.30
20325;DHT22;10320;49.482;11.256;2023-05-21T12:34:40;28.50;92.20
20325;DHT22;10320;49.482;11.256;2023-05-21T12:39:53;28.80;92.20
20325;DHT22;10320;49.482;11.256;2023-05-21T12:42:26;28.70;92.10
20325;DHT22;10320;49.482;11.256;2023-05-21T12:44:52;28.80;93.10
20325;DHT22;10320;49.482;11.256;2023-05-21T12:47:21;28.80;90.10
20325;DHT22;10320;49.482;11.256;2023-05-21T12:49:46;28.80;90.80
20325;DHT22;10320;49.482;11.256;2023-05-21T12:52:14;28.80;91.30
20325;DHT22;10320;49.482;11.256;2023-05-21T12:54:44;29.10;91.50
20325;DHT22;10320;49.482;11.256;2023-05-21T12:59:58;29.10;87.80
20325;DHT22;10320;49.482;11.256;2023-05-21T13:02:26;29.20;90.00
20325;DHT22;10320;49.482;11.256;2023-05-21T13:07:26;29.00;86.90
20325;DHT22;10320;49.482;11.256;2023-05-21T13:09:53;29.00;88.20
20325;DHT22;10320;49.482;11.256;2023-05-21T13:12:23;29.20;86.20
20325;DHT22;10320;49.482;11.256;2023-05-21T13:14:49;29.50;85.70
20325;DHT22;10320;49.482;11.256;2023-05-21T13:17:16;29.50;85.30
20325;DHT22;10320;49.482;11.256;2023-05-21T13:19:42;29.70;82.80
20325;DHT22;10320;49.482;11.256;2023-05-21T13:22:07;30.40;86.80
20325;DHT22;10320;49.482;11.256;2023-05-21T13:24:35;31.30;82.90
20325;DHT22;10320;49.482;11.256;2023-05-21T13:27:02;32.60;79.20
20325;DHT22;10320;49.482;11.256;2023-05-21T13:29:27;33.90;76.90
20325;DHT22;10320;49.482;11.256;2023-05-21T13:32:02;35.20;70.30
20325;DHT22;10320;49.482;11.256;2023-05-21T13:34:28;36.30;69.50
20325;DHT22;10320;49.482;11.256;2023-05-21T13:36:54;36.40;63.40
20325;DHT22;10320;49.482;11.256;2023-05-21T13:39:19;37.40;61.30
20325;DHT22;10320;49.482;11.256;2023-05-21T13:41:51;37.90;58.70
20325;DHT22;10320;49.482;11.256;2023-05-21T13:44:16;38.20;56.70
20325;DHT22;10320;49.482;11.256;2023-05-21T13:46:42;37.20;55.80
20325;DHT22;10320;49.482;11.256;2023-05-21T13:49:08;37.20;56.30
20325;DHT22;10320;49.482;11.256;2023-05-21T13:51:33;37.20;52.90
20325;DHT22;10320;49.482;11.256;2023-05-21T13:54:02;37.40;52.80
20325;DHT22;10320;49.482;11.256;2023-05-21T13:56:28;37.20;53.30
20325;DHT22;10320;49.482;11.256;2023-05-21T13:58:53;37.50;49.80
20325;DHT22;10320;49.482;11.256;2023-05-21T14:01:19;37.30;50.80
20325;DHT22;10320;49.482;11.256;2023-05-21T14:03:45;37.10;47.70
20325;DHT22;10320;49.482;11.256;2023-05-21T14:06:10;36.90;48.70
20325;DHT22;10320;49.482;11.256;2023-05-21T14:08:36;37.20;49.90
20325;DHT22;10320;49.482;11.256;2023-05-21T14:11:02;37.50;48.30
20325;DHT22;10320;49.482;11.256;2023-05-21T14:15:55;36.90;46.40
20325;DHT22;10320;49.482;11.256;2023-05-21T14:18:20;37.10;47.50
20325;DHT22;10320;49.482;11.256;2023-05-21T14:20:46;37.50;48.00
20325;DHT22;10320;49.482;11.256;2023-05-21T14:23:12;37.40;45.70
20325;DHT22;10320;49.482;11.256;2023-05-21T14:25:37;37.50;48.20
20325;DHT22;10320;49.482;11.256;2023-05-21T14:28:03;38.10;47.90
20325;DHT22;10320;49.482;11.256;2023-05-21T14:30:30;38.30;45.60
20325;DHT22;10320;49.482;11.256;2023-05-21T14:49:58;38.10;45.60
20325;DHT22;10320;49.482;11.256;2023-05-21T15:43:31;38.60;45.70
20325;DHT22;10320;49.482;11.256;2023-05-21T15:46:04;40.00;41.30
20325;DHT22;10320;49.482;11.256;2023-05-21T15:48:30;40.10;41.20
20325;DHT22;10320;49.482;11.256;2023-05-21T20:16:32;39.40;40.10
20325;DHT22;10320;49.482;11.256;2023-05-21T20:18:58;17.30;99.90
20325;DHT22;10320;49.482;11.256;2023-05-21T20:21:25;16.90;99.90
20325;DHT22;10320;49.482;11.256;2023-05-21T20:23:52;16.80;99.90
20325;DHT22;10320;49.482;11.256;2023-05-21T20:26:17;16.80;99.90
20325;DHT22;10320;49.482;11.256;2023-05-21T20:28:43;16.70;99.90
20325;DHT22;10320;49.482;11.256;2023-05-21T20:31:10;16.60;99.90
20325;DHT22;10320;49.482;11.256;2023-05-21T20:33:36;16.60;99.90
20325;DHT22;10320;49.482;11.256;2023-05-21T20:36:02;16.50;99.90
20325;DHT22;10320;49.482;11.256;2023-05-21T20:38:28;16.50;99.90
20325;DHT22;10320;49.482;11.256;2023-05-21T20:40:57;16.50;99.90
20325;DHT22;10320;49.482;11.256;2023-05-21T20:43:23;16.40;99.90
20325;DHT22;10320;49.482;11.256;2023-05-21T20:45:51;16.40;99.90
20325;DHT22;10320;49.482;11.256;2023-05-21T20:48:28;16.40;99.90
20325;DHT22;10320;49.482;11.256;2023-05-21T20:50:56;16.40;99.90
20325;DHT22;10320;49.482;11.256;2023-05-21T20:53:22;16.30;99.90
20325;DHT22;10320;49.482;11.256;2023-05-21T20:55:48;16.30;99.90
20325;DHT22;10320;49.482;11.256;2023-05-21T20:58:13;16.30;99.90
20325;DHT22;10320;49.482;11.256;2023-05-21T21:00:39;16.20;99.90
20325;DHT22;10320;49.482;11.256;2023-05-21T21:03:09;16.20;99.90
20325;DHT22;10320;49.482;11.256;2023-05-21T21:05:36;16.20;99.90
20325;DHT22;10320;49.482;11.256;2023-05-21T21:08:03;16.10;99.90
20325;DHT22;10320;49.482;11.256;2023-05-21T21:10:33;16.10;99.90
20325;DHT22;10320;49.482;11.256;2023-05-21T21:12:58;16.00;99.90
20325;DHT22;10320;49.482;11.256;2023-05-21T21:15:24;16.00;99.90
20325;DHT22;10320;49.482;11.256;2023-05-21T21:17:50;15.90;99.90
20325;DHT22;10320;49.482;11.256;2023-05-21T21:20:15;15.90;99.90
20325;DHT22;10320;49.482;11.256;2023-05-21T21:22:43;15.90;99.90
20325;DHT22;10320;49.482;11.256;2023-05-21T21:25:09;15.80;99.90
20325;DHT22;10320;49.482;11.256;2023-05-21T21:27:35;15.80;99.90
20325;DHT22;10320;49.482;11.256;2023-05-21T21:30:01;15.80;99.90
20325;DHT22;10320;49.482;11.256;2023-05-21T21:32:26;15.80;99.90
20325;DHT22;10320;49.482;11.256;2023-05-21T21:34:52;15.70;99.90
20325;DHT22;10320;49.482;11.256;2023-05-21T21:37:18;15.70;99.90
20325;DHT22;10320;49.482;11.256;2023-05-21T21:39:43;15.70;99.90
20325;DHT22;10320;49.482;11.256;2023-05-21T21:42:09;15.70;99.90
20325;DHT22;10320;49.482;11.256;2023-05-21T21:44:35;15.70;99.90
20325;DHT22;10320;49.482;11.256;2023-05-21T21:47:00;15.60;99.90
20325;DHT22;10320;49.482;11.256;2023-05-21T21:49:26;15.60;99.90
20325;DHT22;10320;49.482;11.256;2023-05-21T21:51:51;15.60;99.90
20325;DHT22;10320;49.482;11.256;2023-05-21T21:54:17;15.60;99.90
20325;DHT22;10320;49.482;11.256;2023-05-21T21:56:43;15.50;99.90
20325;DHT22;10320;49.482;11.256;2023-05-21T21:59:09;15.50;99.90
20325;DHT22;10320;49.482;11.256;2023-05-21T22:01:34;15.40;99.90
20325;DHT22;10320;49.482;11.256;2023-05-21T22:04:00;15.40;99.90
20325;DHT22;10320;49.482;11.256;2023-05-21T22:06:26;15.40;99.90
20325;DHT22;10320;49.482;11.256;2023-05-21T22:08:52;15.30;99.90
20325;DHT22;10320;49.482;11.256;2023-05-21T22:11:18;15.30;99.90
20325;DHT22;10320;49.482;11.256;2023-05-21T22:13:44;15.20;99.90
20325;DHT22;10320;49.482;11.256;2023-05-21T22:16:09;15.20;99.90
20325;DHT22;10320;49.482;11.256;2023-05-21T22:18:36;15.20;99.90
20325;DHT22;10320;49.482;11.256;2023-05-21T22:21:04;15.20;99.90
20325;DHT22;10320;49.482;11.256;2023-05-21T22:23:34;15.20;99.90
20325;DHT22;10320;49.482;11.256;2023-05-21T22:26:00;15.10;99.90
20325;DHT22;10320;49.482;11.256;2023-05-21T22:28:25;15.10;99.90
20325;DHT22;10320;49.482;11.256;2023-05-21T22:30:51;15.10;99.90
20325;DHT22;10320;49.482;11.256;2023-05-21T22:33:17;15.00;99.90
20325;DHT22;10320;49.482;11.256;2023-05-21T22:35:42;15.00;99.90
20325;DHT22;10320;49.482;11.256;2023-05-21T22:38:08;15.00;99.90
20325;DHT22;10320;49.482;11.256;2023-05-21T22:40:33;14.90;99.90
20325;DHT22;10320;49.482;11.256;2023-05-21T22:42:59;14.90;99.90
20325;DHT22;10320;49.482;11.256;2023-05-21T22:45:27;14.90;99.90
20325;DHT22;10320;49.482;11.256;2023-05-21T22:47:53;14.90;99.90
20325;DHT22;10320;49.482;11.256;2023-05-21T22:50:21;14.90;99.90
20325;DHT22;10320;49.482;11.256;2023-05-21T22:52:47;14.90;99.90
20325;DHT22;10320;49.482;11.256;2023-05-21T22:55:14;14.80;99.90
20325;DHT22;10320;49.482;11.256;2023-05-21T22:57:40;14.80;99.90
20325;DHT22;10320;49.482;11.256;2023-05-21T23:00:07;14.70;99.90
20325;DHT22;10320;49.482;11.256;2023-05-21T23:02:33;14.70;99.90
20325;DHT22;10320;49.482;11.256;2023-05-21T23:04:59;14.70;99.90
20325;DHT22;10320;49.482;11.256;2023-05-21T23:07:24;14.70;99.90
20325;DHT22;10320;49.482;11.256;2023-05-21T23:09:50;14.60;99.90
20325;DHT22;10320;49.482;11.256;2023-05-21T23:12:16;14.60;99.90
20325;DHT22;10320;49.482;11.256;2023-05-21T23:14:41;14.60;99.90
20325;DHT22;10320;49.482;11.256;2023-05-21T23:17:07;14.50;99.90
20325;DHT22;10320;49.482;11.256;2023-05-21T23:19:33;14.50;99.90
20325;DHT22;10320;49.482;11.256;2023-05-21T23:21:59;14.50;99.90
20325;DHT22;10320;49.482;11.256;2023-05-21T23:24:24;14.60;99.90
20325;DHT22;10320;49.482;11.256;2023-05-21T23:26:52;14.60;99.90
20325;DHT22;10320;49.482;11.256;2023-05-21T23:29:21;14.50;99.90
20325;DHT22;10320;49.482;11.256;2023-05-21T23:31:46;14.50;99.90
20325;DHT22;10320;49.482;11.256;2023-05-21T23:34:13;14.40;99.90
20325;DHT22;10320;49.482;11.256;2023-05-21T23:36:38;14.40;99.90
20325;DHT22;10320;49.482;11.256;2023-05-21T23:39:04;14.40;99.90
20325;DHT22;10320;49.482;11.256;2023-05-21T23:41:30;14.30;99.90
20325;DHT22;10320;49.482;11.256;2023-05-21T23:43:55;14.30;99.90
20325;DHT22;10320;49.482;11.256;2023-05-21T23:46:21;14.30;99.90
20325;DHT22;10320;49.482;11.256;2023-05-21T23:48:47;14.40;99.90
20325;DHT22;10320;49.482;11.256;2023-05-21T23:51:12;14.40;99.90
20325;DHT22;10320;49.482;11.256;2023-05-21T23:53:38;14.40;99.90
20325;DHT22;10320;49.482;11.256;2023-05-21T23:56:04;14.40;99.90
20325;DHT22;10320;49.482;11.256;2023-05-21T23:58:30;14.40;99.90
